createdAt,value
2023-10-02T00:00:55.239Z,16.12
2023-10-02T00:03:24.725Z,16.11
2023-10-02T00:05:55.544Z,16.08
2023-10-02T00:08:23.528Z,16.14
2023-10-02T00:10:51.579Z,16.12
2023-10-02T00:13:20.366Z,15.97
2023-10-02T00:15:48.706Z,16.01
2023-10-02T00:18:16.745Z,15.97
2023-10-02T00:20:44.770Z,15.93
2023-10-02T00:23:13.114Z,16.04
2023-10-02T00:25:41.430Z,16.00
2023-10-02T00:28:10.624Z,15.90
2023-10-02T00:30:39.013Z,15.78
2023-10-02T00:33:07.961Z,15.78
2023-10-02T00:35:36.047Z,15.79
2023-10-02T00:38:05.796Z,15.51
2023-10-02T00:40:34.163Z,15.52
2023-10-02T00:43:04.073Z,15.38
2023-10-02T00:45:33.565Z,15.30
2023-10-02T00:48:05.454Z,15.16
2023-10-02T00:50:33.658Z,15.09
2023-10-02T00:53:05.704Z,14.91
2023-10-02T00:55:35.805Z,14.73
2023-10-02T00:58:06.711Z,14.59
2023-10-02T01:00:36.614Z,14.65
2023-10-02T01:03:10.225Z,14.58
2023-10-02T01:05:41.181Z,14.42
2023-10-02T01:08:19.047Z,14.28
2023-10-02T01:10:47.198Z,14.13
2023-10-02T01:13:16.654Z,14.02
2023-10-02T01:18:17.882Z,13.90
2023-10-02T01:20:47.547Z,13.85
2023-10-02T01:23:22.337Z,13.61
2023-10-02T01:25:52.180Z,13.63
2023-10-02T01:28:21.003Z,13.50
2023-10-02T01:30:50.717Z,13.37
2023-10-02T01:33:19.222Z,13.30
2023-10-02T01:35:50.664Z,13.15
2023-10-02T01:38:23.832Z,13.00
2023-10-02T01:40:54.768Z,12.90
2023-10-02T01:43:27.054Z,12.83
2023-10-02T01:45:55.523Z,12.66
2023-10-02T01:48:23.770Z,12.64
2023-10-02T01:50:52.198Z,12.64
2023-10-02T01:53:20.951Z,12.28
2023-10-02T01:55:48.998Z,12.05
2023-10-02T01:58:20.209Z,12.06
2023-10-02T02:00:49.525Z,11.99
2023-10-02T02:03:18.100Z,12.00
2023-10-02T02:05:46.706Z,11.83
2023-10-02T02:08:15.566Z,11.78
2023-10-02T02:10:43.623Z,11.73
2023-10-02T02:13:12.178Z,11.60
2023-10-02T02:15:40.450Z,11.61
2023-10-02T02:18:08.971Z,11.73
2023-10-02T02:20:37.293Z,11.65
2023-10-02T02:23:05.472Z,11.61
2023-10-02T02:25:33.874Z,11.55
2023-10-02T02:28:05.435Z,10.92
2023-10-02T02:30:36.435Z,10.42
2023-10-02T02:33:08.833Z,10.65
2023-10-02T02:35:36.892Z,10.69
2023-10-02T02:38:05.328Z,10.86
2023-10-02T02:40:33.719Z,11.04
2023-10-02T02:43:02.598Z,11.03
2023-10-02T02:45:32.069Z,11.09
2023-10-02T02:48:04.408Z,11.10
2023-10-02T02:50:46.320Z,10.96
2023-10-02T02:53:16.218Z,10.69
2023-10-02T02:55:48.212Z,10.59
2023-10-02T02:58:17.019Z,10.48
2023-10-02T03:00:45.096Z,10.64
2023-10-02T03:03:13.214Z,10.82
2023-10-02T03:05:44.491Z,10.81
2023-10-02T03:08:12.621Z,10.85
2023-10-02T03:10:41.265Z,10.77
2023-10-02T03:13:09.884Z,10.24
2023-10-02T03:15:37.917Z,10.23
2023-10-02T03:18:06.577Z,10.22
2023-10-02T03:20:37.977Z,10.09
2023-10-02T03:23:09.060Z,9.97
2023-10-02T03:25:39.730Z,10.00
2023-10-02T03:28:10.751Z,9.93
2023-10-02T03:30:39.031Z,9.93
2023-10-02T03:33:08.674Z,10.02
2023-10-02T03:35:38.069Z,10.03
2023-10-02T03:38:09.077Z,9.93
2023-10-02T03:40:37.368Z,9.87
2023-10-02T03:43:06.166Z,9.51
2023-10-02T03:45:34.470Z,9.45
2023-10-02T03:48:06.018Z,9.62
2023-10-02T03:50:34.025Z,9.75
2023-10-02T03:53:06.396Z,9.72
2023-10-02T03:55:34.435Z,9.83
2023-10-02T03:58:02.436Z,9.77
2023-10-02T04:00:31.361Z,9.70
2023-10-02T04:03:00.559Z,9.55
2023-10-02T04:05:28.969Z,9.45
2023-10-02T04:07:57.698Z,9.53
2023-10-02T04:10:26.075Z,9.68
2023-10-02T04:12:54.452Z,9.58
2023-10-02T04:15:22.461Z,9.41
2023-10-02T04:17:53.070Z,9.27
2023-10-02T04:20:23.760Z,9.24
2023-10-02T04:22:51.952Z,9.14
2023-10-02T04:25:19.956Z,9.16
2023-10-02T04:27:48.697Z,9.21
2023-10-02T04:30:24.106Z,9.24
2023-10-02T04:32:53.393Z,9.36
2023-10-02T04:35:22.506Z,9.41
2023-10-02T04:37:50.507Z,9.38
2023-10-02T04:40:18.657Z,9.44
2023-10-02T04:42:46.884Z,9.36
2023-10-02T04:45:15.647Z,9.39
2023-10-02T04:47:46.831Z,9.56
2023-10-02T04:50:14.907Z,9.57
2023-10-02T04:52:44.847Z,9.39
2023-10-02T04:55:13.076Z,9.26
2023-10-02T04:57:41.101Z,9.34
2023-10-02T05:00:13.473Z,9.37
2023-10-02T05:02:44.490Z,9.58
2023-10-02T05:05:13.292Z,9.48
2023-10-02T05:07:42.196Z,9.08
2023-10-02T05:10:11.755Z,9.00
2023-10-02T05:12:39.719Z,9.18
2023-10-02T05:15:09.545Z,9.17
2023-10-02T05:17:40.430Z,9.28
2023-10-02T05:20:09.517Z,9.54
2023-10-02T05:22:37.968Z,9.33
2023-10-02T05:25:09.420Z,9.24
2023-10-02T05:27:40.605Z,9.12
2023-10-02T05:30:12.475Z,9.13
2023-10-02T05:32:42.470Z,9.36
2023-10-02T05:35:11.273Z,9.39
2023-10-02T05:37:40.158Z,9.18
2023-10-02T05:40:10.402Z,9.00
2023-10-02T05:42:38.710Z,8.95
2023-10-02T05:45:07.291Z,9.15
2023-10-02T05:47:35.665Z,9.24
2023-10-02T05:50:07.243Z,8.96
2023-10-02T05:52:35.522Z,9.05
2023-10-02T05:55:03.798Z,9.08
2023-10-02T05:57:32.328Z,9.00
2023-10-02T06:00:01.014Z,8.84
2023-10-02T06:02:29.609Z,8.84
2023-10-02T06:04:58.112Z,8.82
2023-10-02T06:07:26.607Z,8.80
2023-10-02T06:09:56.971Z,8.60
2023-10-02T06:12:25.075Z,8.67
2023-10-02T06:14:53.296Z,8.75
2023-10-02T06:17:22.529Z,8.87
2023-10-02T06:19:51.334Z,8.83
2023-10-02T06:22:19.716Z,8.82
2023-10-02T06:24:48.895Z,8.65
2023-10-02T06:27:19.764Z,8.62
2023-10-02T06:29:47.987Z,8.53
2023-10-02T06:32:16.838Z,8.46
2023-10-02T06:34:45.238Z,8.46
2023-10-02T06:37:15.324Z,8.70
2023-10-02T06:39:53.585Z,8.85
2023-10-02T06:42:21.863Z,8.74
2023-10-02T06:44:49.877Z,8.56
2023-10-02T06:47:21.921Z,8.44
2023-10-02T06:49:50.921Z,8.19
2023-10-02T06:52:19.843Z,7.98
2023-10-02T06:54:51.960Z,7.97
2023-10-02T06:57:22.025Z,7.98
2023-10-02T06:59:50.566Z,7.86
2023-10-02T07:02:19.482Z,7.54
2023-10-02T07:04:51.588Z,7.72
2023-10-02T07:07:21.458Z,7.94
2023-10-02T07:09:50.414Z,8.11
2023-10-02T07:12:18.474Z,8.14
2023-10-02T07:14:50.712Z,8.14
2023-10-02T07:17:18.827Z,8.23
2023-10-02T07:19:51.966Z,8.46
2023-10-02T07:22:26.903Z,8.43
2023-10-02T07:24:57.123Z,8.40
2023-10-02T07:27:26.737Z,8.43
2023-10-02T07:30:00.018Z,8.25
2023-10-02T07:32:31.355Z,8.11
2023-10-02T07:35:00.353Z,7.56
2023-10-02T07:37:28.418Z,7.61
2023-10-02T07:39:57.988Z,7.52
2023-10-02T07:42:27.257Z,7.83
2023-10-02T07:44:55.925Z,7.94
2023-10-02T07:47:27.277Z,8.06
2023-10-02T07:49:55.454Z,8.11
2023-10-02T07:52:24.276Z,8.07
2023-10-02T07:54:52.646Z,7.93
2023-10-02T07:57:21.004Z,8.00
2023-10-02T07:59:49.034Z,7.88
2023-10-02T08:02:17.429Z,7.83
2023-10-02T08:04:48.908Z,7.70
2023-10-02T08:07:21.551Z,7.68
2023-10-02T08:09:54.399Z,7.66
2023-10-02T08:12:22.383Z,7.72
2023-10-02T08:14:50.710Z,7.65
2023-10-02T08:17:18.726Z,7.83
2023-10-02T08:19:48.134Z,7.91
2023-10-02T08:22:17.517Z,7.91
2023-10-02T08:24:45.786Z,7.90
2023-10-02T08:27:15.142Z,7.59
2023-10-02T08:29:43.952Z,7.45
2023-10-02T08:32:13.677Z,7.25
2023-10-02T08:34:42.170Z,7.15
2023-10-02T08:37:10.592Z,7.11
2023-10-02T08:39:43.460Z,7.10
2023-10-02T08:42:11.458Z,7.10
2023-10-02T08:44:43.306Z,7.11
2023-10-02T08:47:15.515Z,7.12
2023-10-02T08:49:44.026Z,7.14
2023-10-02T08:52:13.261Z,7.01
2023-10-02T08:54:41.531Z,7.14
2023-10-02T08:57:10.824Z,6.90
2023-10-02T08:59:39.547Z,6.86
2023-10-02T09:02:18.927Z,6.78
2023-10-02T09:04:49.734Z,6.76
2023-10-02T09:07:43.714Z,6.81
2023-10-02T09:10:12.764Z,6.55
2023-10-02T09:12:41.148Z,6.53
2023-10-02T09:15:24.406Z,6.37
2023-10-02T09:17:59.163Z,6.36
2023-10-02T09:20:27.541Z,6.62
2023-10-02T09:23:01.695Z,6.88
2023-10-02T09:25:33.001Z,6.85
2023-10-02T09:28:01.693Z,6.82
2023-10-02T09:30:31.397Z,7.03
2023-10-02T09:33:04.051Z,7.04
2023-10-02T09:36:14.769Z,6.84
2023-10-02T09:38:25.672Z,6.89
2023-10-02T09:40:54.262Z,6.72
2023-10-02T09:43:28.879Z,6.82
2023-10-02T09:45:59.129Z,6.67
2023-10-02T09:48:29.957Z,6.32
2023-10-02T09:51:00.611Z,5.73
2023-10-02T09:53:33.735Z,6.15
2023-10-02T09:56:14.658Z,6.13
2023-10-02T09:58:52.811Z,5.85
2023-10-02T10:01:23.741Z,5.93
2023-10-02T10:03:53.070Z,6.36
2023-10-02T10:06:21.973Z,6.28
2023-10-02T10:08:59.439Z,6.42
2023-10-02T10:11:27.645Z,6.27
2023-10-02T10:13:55.981Z,6.26
2023-10-02T10:16:25.075Z,6.20
2023-10-02T10:18:59.417Z,5.88
2023-10-02T10:21:43.871Z,6.18
2023-10-02T10:24:37.439Z,6.10
2023-10-02T10:27:06.488Z,6.56
2023-10-02T10:29:42.960Z,6.77
2023-10-02T10:32:18.414Z,6.97
2023-10-02T10:35:05.823Z,6.94
2023-10-02T10:37:48.990Z,6.55
2023-10-02T10:40:38.048Z,6.14
2023-10-02T10:43:06.339Z,6.06
2023-10-02T10:45:35.395Z,6.17
2023-10-02T10:48:04.301Z,6.27
2023-10-02T10:50:33.585Z,6.68
2023-10-02T10:53:05.861Z,6.79
2023-10-02T10:55:34.495Z,7.00
2023-10-02T10:58:06.914Z,6.83
2023-10-02T11:00:36.691Z,6.81
2023-10-02T11:03:05.617Z,6.81
2023-10-02T11:05:33.701Z,7.02
2023-10-02T11:08:13.664Z,6.98
2023-10-02T11:10:41.855Z,6.71
2023-10-02T11:13:10.130Z,6.68
2023-10-02T11:15:38.761Z,6.69
2023-10-02T11:18:17.019Z,6.73
2023-10-02T11:20:45.419Z,7.07
2023-10-02T11:23:14.125Z,7.10
2023-10-02T11:25:53.583Z,7.23
2023-10-02T11:28:32.536Z,7.24
2023-10-02T11:31:23.987Z,6.98
2023-10-02T11:34:15.942Z,6.76
2023-10-02T11:36:51.188Z,6.73
2023-10-02T11:39:19.451Z,6.80
2023-10-02T11:41:48.824Z,7.05
2023-10-02T11:44:17.275Z,7.15
2023-10-02T11:46:45.510Z,7.07
2023-10-02T11:49:13.858Z,7.13
2023-10-02T11:51:42.423Z,6.94
2023-10-02T11:54:10.683Z,7.02
2023-10-02T11:56:39.392Z,7.20
2023-10-02T11:59:08.079Z,7.21
2023-10-02T12:01:37.040Z,6.86
2023-10-02T12:04:06.663Z,6.91
2023-10-02T12:06:34.765Z,6.62
2023-10-02T12:09:05.245Z,6.84
2023-10-02T12:11:37.039Z,6.91
2023-10-02T12:14:09.423Z,6.79
2023-10-02T12:16:37.733Z,6.82
2023-10-02T12:19:06.416Z,6.84
2023-10-02T12:21:34.749Z,6.89
2023-10-02T12:24:03.089Z,6.78
2023-10-02T12:26:33.900Z,6.82
2023-10-02T12:29:02.869Z,6.91
2023-10-02T12:31:31.876Z,7.18
2023-10-02T12:34:04.751Z,7.07
2023-10-02T12:36:33.815Z,6.76
2023-10-02T12:39:05.001Z,6.74
2023-10-02T12:41:33.338Z,6.74
2023-10-02T12:44:01.732Z,6.80
2023-10-02T12:46:33.219Z,6.79
2023-10-02T12:49:01.818Z,6.72
2023-10-02T12:51:31.995Z,6.68
2023-10-02T12:54:03.006Z,6.75
2023-10-02T12:56:31.303Z,6.86
2023-10-02T12:59:00.460Z,7.06
2023-10-02T13:01:29.991Z,7.11
2023-10-02T13:03:59.637Z,7.14
2023-10-02T13:06:30.257Z,6.92
2023-10-02T13:09:01.137Z,6.77
2023-10-02T13:11:30.260Z,6.88
2023-10-02T13:13:58.352Z,7.08
2023-10-02T13:16:26.708Z,6.83
2023-10-02T13:18:55.430Z,6.59
2023-10-02T13:21:23.516Z,6.82
2023-10-02T13:23:54.192Z,6.82
2023-10-02T13:26:22.549Z,6.77
2023-10-02T13:28:50.570Z,6.77
2023-10-02T13:31:18.827Z,6.79
2023-10-02T13:33:48.420Z,6.71
2023-10-02T13:36:16.904Z,6.90
2023-10-02T13:38:45.690Z,6.99
2023-10-02T13:41:14.692Z,6.99
2023-10-02T13:43:43.601Z,6.92
2023-10-02T13:46:15.942Z,6.93
2023-10-02T13:48:47.186Z,7.10
2023-10-02T13:51:16.381Z,7.11
2023-10-02T13:53:48.115Z,6.89
2023-10-02T13:56:19.709Z,6.97
2023-10-02T13:58:52.967Z,7.00
2023-10-02T14:01:26.029Z,7.07
2023-10-02T14:03:56.656Z,7.23
2023-10-02T14:06:26.709Z,7.07
2023-10-02T14:08:55.201Z,7.01
2023-10-02T14:11:29.106Z,7.14
2023-10-02T14:13:58.126Z,7.27
2023-10-02T14:16:27.664Z,7.23
2023-10-02T14:18:57.488Z,7.31
2023-10-02T14:21:26.823Z,7.55
2023-10-02T14:23:56.112Z,7.58
2023-10-02T14:26:26.112Z,7.64
2023-10-02T14:28:55.250Z,7.75
2023-10-02T14:31:27.641Z,7.90
2023-10-02T14:33:56.537Z,8.12
2023-10-02T14:36:25.996Z,8.18
2023-10-02T14:38:55.509Z,8.43
2023-10-02T14:41:27.184Z,8.40
2023-10-02T14:43:57.367Z,8.34
2023-10-02T14:46:25.826Z,8.33
2023-10-02T14:48:54.256Z,8.32
2023-10-02T14:51:23.198Z,8.22
2023-10-02T14:53:52.572Z,8.18
2023-10-02T14:56:21.986Z,7.88
2023-10-02T14:58:50.436Z,7.80
2023-10-02T15:01:20.204Z,7.82
2023-10-02T15:03:50.573Z,8.07
2023-10-02T15:06:18.862Z,8.28
2023-10-02T15:08:47.231Z,8.51
2023-10-02T15:11:17.391Z,8.59
2023-10-02T15:13:48.066Z,8.90
2023-10-02T15:16:17.005Z,8.92
2023-10-02T15:18:45.964Z,8.54
2023-10-02T15:21:14.261Z,8.24
2023-10-02T15:23:42.349Z,8.40
2023-10-02T15:26:10.783Z,8.90
2023-10-02T15:28:39.641Z,9.93
2023-10-02T15:31:08.000Z,8.62
2023-10-02T15:33:41.562Z,8.36
2023-10-02T15:36:14.503Z,8.29
2023-10-02T15:38:42.893Z,8.29
2023-10-02T15:41:30.595Z,8.94
2023-10-02T15:43:59.258Z,9.55
2023-10-02T15:46:27.960Z,9.69
2023-10-02T15:48:57.552Z,9.75
2023-10-02T15:51:26.383Z,9.85
2023-10-02T15:53:55.009Z,9.98
2023-10-02T15:56:26.008Z,9.85
2023-10-02T15:58:55.974Z,9.81
2023-10-02T16:01:24.333Z,10.24
2023-10-02T16:03:52.902Z,10.13
2023-10-02T16:06:21.318Z,10.32
2023-10-02T16:08:49.930Z,9.58
2023-10-02T16:11:22.431Z,9.57
2023-10-02T16:13:51.611Z,9.42
2023-10-02T16:16:22.548Z,9.59
2023-10-02T16:18:51.207Z,9.67
2023-10-02T16:21:19.469Z,9.70
2023-10-02T16:23:47.840Z,9.41
2023-10-02T16:26:24.051Z,9.28
2023-10-02T16:28:52.716Z,9.33
2023-10-02T16:31:23.469Z,9.42
2023-10-02T16:33:54.233Z,9.57
2023-10-02T16:36:24.344Z,9.74
2023-10-02T16:39:05.975Z,9.85
2023-10-02T16:41:35.939Z,9.78
2023-10-02T16:44:06.863Z,9.75
2023-10-02T16:46:38.193Z,9.88
2023-10-02T16:49:06.800Z,9.90
2023-10-02T16:51:35.456Z,9.88
2023-10-02T16:54:06.092Z,10.03
2023-10-02T16:56:34.879Z,10.18
2023-10-02T16:59:05.793Z,10.07
2023-10-02T17:01:33.951Z,10.04
2023-10-02T17:04:08.595Z,10.30
2023-10-02T17:06:36.757Z,10.13
2023-10-02T17:09:05.116Z,10.25
2023-10-02T17:11:33.352Z,10.58
2023-10-02T17:14:03.004Z,10.74
2023-10-02T17:16:31.441Z,10.75
2023-10-02T17:19:00.123Z,10.90
2023-10-02T17:21:29.921Z,10.68
2023-10-02T17:23:59.607Z,10.68
2023-10-02T17:26:28.526Z,10.79
2023-10-02T17:28:57.591Z,11.31
2023-10-02T17:31:25.967Z,11.15
2023-10-02T17:33:55.252Z,11.12
2023-10-02T17:36:24.485Z,10.93
2023-10-02T17:38:53.848Z,11.22
2023-10-02T17:41:23.147Z,11.28
2023-10-02T17:43:51.645Z,10.79
2023-10-02T17:46:21.134Z,11.11
2023-10-02T17:48:49.511Z,11.22
2023-10-02T17:51:17.974Z,11.67
2023-10-02T17:53:50.226Z,12.05
2023-10-02T17:56:18.835Z,12.20
2023-10-02T17:58:49.770Z,12.18
2023-10-02T18:01:18.093Z,12.39
2023-10-02T18:03:46.904Z,12.57
2023-10-02T18:06:18.068Z,12.67
2023-10-02T18:08:47.639Z,12.37
2023-10-02T18:11:25.268Z,12.54
2023-10-02T18:13:53.657Z,11.95
2023-10-02T18:16:22.027Z,11.80
2023-10-02T18:18:50.508Z,11.77
2023-10-02T18:21:18.779Z,12.02
2023-10-02T18:23:49.610Z,12.18
2023-10-02T18:26:18.070Z,11.98
2023-10-02T18:28:47.123Z,11.97
2023-10-02T18:31:16.346Z,11.86
2023-10-02T18:33:44.603Z,12.02
2023-10-02T18:36:13.837Z,11.92
2023-10-02T18:38:42.717Z,11.85
2023-10-02T18:41:11.201Z,12.04
2023-10-02T18:43:40.078Z,12.21
2023-10-02T18:46:08.127Z,12.50
2023-10-02T18:48:36.616Z,12.46
2023-10-02T18:51:04.712Z,12.61
2023-10-02T18:53:33.038Z,12.78
2023-10-02T18:56:01.120Z,13.84
2023-10-02T18:58:29.103Z,13.79
2023-10-02T19:01:00.115Z,14.23
2023-10-02T19:03:28.502Z,13.53
2023-10-02T19:05:56.503Z,13.56
2023-10-02T19:08:24.780Z,13.70
2023-10-02T19:10:56.678Z,14.03
2023-10-02T19:13:27.796Z,14.16
2023-10-02T19:15:56.139Z,14.11
2023-10-02T19:18:25.354Z,13.25
2023-10-02T19:20:55.542Z,13.25
2023-10-02T19:23:23.863Z,13.02
2023-10-02T19:25:52.182Z,13.11
2023-10-02T19:28:20.434Z,13.03
2023-10-02T19:30:49.721Z,13.07
2023-10-02T19:33:17.886Z,13.27
2023-10-02T19:35:50.827Z,13.02
2023-10-02T19:38:18.859Z,12.99
2023-10-02T19:40:46.863Z,13.01
2023-10-02T19:43:15.581Z,12.88
2023-10-02T19:45:44.008Z,13.02
2023-10-02T19:48:12.240Z,12.99
2023-10-02T19:50:43.472Z,12.91
2023-10-02T19:53:12.791Z,13.05
2023-10-02T19:55:44.322Z,13.11
2023-10-02T19:58:12.606Z,13.36
2023-10-02T20:00:47.602Z,13.27
2023-10-02T20:03:16.046Z,13.69
2023-10-02T20:05:44.418Z,13.29
2023-10-02T20:08:12.753Z,13.24
2023-10-02T20:10:41.668Z,13.46
2023-10-02T20:13:09.918Z,13.53
2023-10-02T20:15:38.332Z,13.25
2023-10-02T20:18:08.161Z,13.56
2023-10-02T20:20:36.342Z,13.20
2023-10-02T20:23:05.408Z,13.13
2023-10-02T20:25:34.234Z,13.23
2023-10-02T20:28:05.473Z,13.14
2023-10-02T20:30:34.793Z,12.91
2023-10-02T20:33:03.725Z,13.03
2023-10-02T20:35:39.178Z,13.01
2023-10-02T20:38:07.788Z,12.97
2023-10-02T20:40:36.051Z,12.84
2023-10-02T20:43:06.761Z,12.95
2023-10-02T20:45:39.245Z,13.02
2023-10-02T20:48:08.699Z,12.91
2023-10-02T20:50:37.129Z,12.97
2023-10-02T20:53:08.078Z,13.07
2023-10-02T20:55:36.039Z,13.16
2023-10-02T20:58:04.546Z,13.14
2023-10-02T21:00:32.881Z,13.14
2023-10-02T21:03:01.275Z,13.38
2023-10-02T21:05:29.999Z,13.25
2023-10-02T21:08:01.184Z,13.26
2023-10-02T21:10:29.451Z,13.17
2023-10-02T21:12:57.912Z,13.21
2023-10-02T21:15:27.356Z,13.12
2023-10-02T21:17:55.778Z,13.27
2023-10-02T21:20:24.646Z,13.35
2023-10-02T21:22:52.766Z,13.30
2023-10-02T21:25:24.579Z,13.11
2023-10-02T21:27:52.627Z,13.18
2023-10-02T21:30:21.527Z,13.37
2023-10-02T21:32:50.324Z,13.42
2023-10-02T21:35:21.523Z,13.43
2023-10-02T21:37:52.552Z,13.60
2023-10-02T21:40:23.171Z,13.57
2023-10-02T21:42:51.360Z,13.57
2023-10-02T21:45:19.464Z,13.79
2023-10-02T21:47:47.538Z,13.65
2023-10-02T21:50:16.863Z,13.61
2023-10-02T21:52:44.966Z,13.87
2023-10-02T21:55:12.999Z,13.74
2023-10-02T21:57:41.878Z,13.83
2023-10-02T22:00:13.849Z,13.83
2023-10-02T22:02:42.269Z,13.93
2023-10-02T22:05:11.657Z,13.75
2023-10-02T22:07:39.629Z,13.49
2023-10-02T22:10:08.340Z,13.70
2023-10-02T22:12:36.640Z,13.53
2023-10-02T22:15:05.014Z,13.51
2023-10-02T22:17:34.305Z,13.47
2023-10-02T22:20:04.099Z,13.46
2023-10-02T22:22:34.775Z,13.44
2023-10-02T22:25:03.412Z,13.46
2023-10-02T22:27:31.666Z,13.35
2023-10-02T22:29:59.958Z,13.43
2023-10-02T22:32:30.786Z,13.38
2023-10-02T22:34:59.146Z,13.44
2023-10-02T22:37:27.169Z,13.44
2023-10-02T22:39:56.478Z,13.51
2023-10-02T22:42:24.819Z,13.69
2023-10-02T22:44:53.848Z,13.61
2023-10-02T22:47:22.202Z,13.50
2023-10-02T22:49:50.674Z,13.44
2023-10-02T22:52:18.965Z,13.27
2023-10-02T22:54:47.252Z,13.30
2023-10-02T22:57:15.366Z,13.19
2023-10-02T22:59:44.565Z,13.32
2023-10-02T23:02:13.142Z,13.24
2023-10-02T23:04:42.603Z,13.30
2023-10-02T23:07:11.394Z,13.23
2023-10-02T23:09:39.709Z,13.24
2023-10-02T23:12:08.243Z,13.18
2023-10-02T23:14:37.323Z,13.11
2023-10-02T23:17:06.098Z,13.03
2023-10-02T23:19:34.068Z,13.15
2023-10-02T23:22:02.934Z,13.15
2023-10-02T23:24:31.034Z,13.14
2023-10-02T23:26:59.068Z,13.16
2023-10-02T23:29:27.803Z,13.05
2023-10-02T23:31:56.186Z,12.98
2023-10-02T23:34:24.881Z,12.86
2023-10-02T23:36:54.178Z,12.77
2023-10-02T23:39:22.370Z,12.80
2023-10-02T23:41:51.658Z,12.70
2023-10-02T23:44:19.707Z,12.66
2023-10-02T23:46:49.072Z,12.67
2023-10-02T23:49:17.361Z,12.72
2023-10-02T23:51:45.754Z,12.62
2023-10-02T23:54:14.146Z,12.66
2023-10-02T23:56:46.163Z,12.65
2023-10-02T23:59:14.636Z,12.83
